createdAt,value
2022-12-07T00:01:35.200Z,19.90
2022-12-07T00:04:09.332Z,19.90
2022-12-07T00:06:39.058Z,19.90
2022-12-07T00:09:08.278Z,19.90
2022-12-07T00:11:36.114Z,19.80
2022-12-07T00:14:08.362Z,19.80
2022-12-07T00:16:48.289Z,19.80
2022-12-07T00:19:17.691Z,19.80
2022-12-07T00:21:45.711Z,19.80
2022-12-07T00:24:14.478Z,19.80
2022-12-07T00:26:43.749Z,19.80
2022-12-07T00:29:17.089Z,19.80
2022-12-07T00:31:45.045Z,19.80
2022-12-07T00:34:15.484Z,19.80
2022-12-07T00:36:44.969Z,19.70
2022-12-07T00:39:13.022Z,19.70
2022-12-07T00:41:40.947Z,19.70
2022-12-07T00:44:08.863Z,19.70
2022-12-07T00:46:36.747Z,19.70
2022-12-07T00:49:05.018Z,19.70
2022-12-07T00:51:32.909Z,19.80
2022-12-07T00:54:02.206Z,19.70
2022-12-07T00:56:31.617Z,19.70
2022-12-07T00:59:01.534Z,19.80
2022-12-07T01:01:31.291Z,19.80
2022-12-07T01:03:59.938Z,19.80
2022-12-07T01:06:28.033Z,19.80
2022-12-07T01:08:56.174Z,19.80
2022-12-07T01:11:26.759Z,19.80
2022-12-07T01:13:56.476Z,19.80
2022-12-07T01:16:26.599Z,19.80
2022-12-07T01:18:56.247Z,19.80
2022-12-07T01:21:25.526Z,19.80
2022-12-07T01:23:53.913Z,19.80
2022-12-07T01:26:23.847Z,19.80
2022-12-07T01:28:56.267Z,19.80
2022-12-07T01:31:26.188Z,19.80
2022-12-07T01:33:56.868Z,19.80
2022-12-07T01:36:26.892Z,19.80
2022-12-07T01:38:58.051Z,19.80
2022-12-07T01:41:28.125Z,19.80
2022-12-07T01:44:20.453Z,19.80
2022-12-07T01:46:49.473Z,19.80
2022-12-07T01:49:24.220Z,19.80
2022-12-07T01:51:58.589Z,19.80
2022-12-07T01:54:27.908Z,19.80
2022-12-07T01:56:58.438Z,19.70
2022-12-07T01:59:28.465Z,19.70
2022-12-07T02:01:57.929Z,19.70
2022-12-07T02:04:26.379Z,19.70
2022-12-07T02:06:55.813Z,19.80
2022-12-07T02:09:23.728Z,19.70
2022-12-07T02:11:52.618Z,19.70
2022-12-07T02:14:20.537Z,19.70
2022-12-07T02:17:02.003Z,19.70
2022-12-07T02:19:59.947Z,19.70
2022-12-07T02:22:50.153Z,19.70
2022-12-07T02:25:27.779Z,19.70
2022-12-07T02:28:02.534Z,19.70
2022-12-07T02:30:35.769Z,19.60
2022-12-07T02:33:08.036Z,19.70
2022-12-07T02:35:41.731Z,19.70
2022-12-07T02:38:16.389Z,19.60
2022-12-07T02:40:50.163Z,19.60
2022-12-07T02:43:22.514Z,19.60
2022-12-07T02:45:54.872Z,19.60
2022-12-07T02:48:23.959Z,19.60
2022-12-07T02:50:52.410Z,19.60
2022-12-07T02:53:38.082Z,19.70
2022-12-07T02:56:15.871Z,19.70
2022-12-07T02:58:57.166Z,19.70
2022-12-07T03:01:32.918Z,19.70
2022-12-07T03:04:17.710Z,19.70
2022-12-07T03:06:52.603Z,19.70
2022-12-07T03:09:27.178Z,19.70
2022-12-07T03:12:02.823Z,19.70
2022-12-07T03:14:35.693Z,19.80
2022-12-07T03:17:12.086Z,19.80
2022-12-07T03:19:42.947Z,19.80
2022-12-07T03:22:13.403Z,19.80
2022-12-07T03:24:45.742Z,19.80
2022-12-07T03:27:18.733Z,19.80
2022-12-07T03:29:53.260Z,19.80
2022-12-07T03:32:29.278Z,19.80
2022-12-07T03:35:03.853Z,19.70
2022-12-07T03:37:36.357Z,19.70
2022-12-07T03:40:13.977Z,19.70
2022-12-07T03:42:42.434Z,19.70
2022-12-07T03:45:12.292Z,19.70
2022-12-07T03:47:48.926Z,19.70
2022-12-07T03:50:23.996Z,19.70
2022-12-07T03:52:58.099Z,19.70
2022-12-07T03:55:30.047Z,19.70
2022-12-07T03:58:01.815Z,19.70
2022-12-07T04:00:30.186Z,19.60
2022-12-07T04:02:59.918Z,19.60
2022-12-07T04:05:28.117Z,19.60
2022-12-07T04:07:56.093Z,19.60
2022-12-07T04:10:24.186Z,19.60
2022-12-07T04:12:52.014Z,19.60
2022-12-07T04:15:20.033Z,19.60
2022-12-07T04:17:47.911Z,19.60
2022-12-07T04:20:17.391Z,19.60
2022-12-07T04:22:45.255Z,19.60
2022-12-07T04:25:13.177Z,19.60
2022-12-07T04:27:41.071Z,19.60
2022-12-07T04:30:09.966Z,19.60
2022-12-07T04:32:37.819Z,19.60
2022-12-07T04:35:06.929Z,19.60
2022-12-07T04:37:36.246Z,19.60
2022-12-07T04:40:04.684Z,19.60
2022-12-07T04:42:32.735Z,19.60
2022-12-07T04:45:00.557Z,19.60
2022-12-07T04:47:28.442Z,19.60
2022-12-07T04:49:56.273Z,19.60
2022-12-07T04:52:24.118Z,19.60
2022-12-07T04:54:53.327Z,19.60
2022-12-07T04:57:21.118Z,19.70
2022-12-07T04:59:48.948Z,19.70
2022-12-07T05:02:16.816Z,19.70
2022-12-07T05:04:44.824Z,19.70
2022-12-07T05:07:12.625Z,19.70
2022-12-07T05:09:40.442Z,19.70
2022-12-07T05:12:09.777Z,19.70
2022-12-07T05:14:37.675Z,19.70
2022-12-07T05:17:06.045Z,19.70
2022-12-07T05:19:34.055Z,19.70
2022-12-07T05:22:01.868Z,19.70
2022-12-07T05:24:29.674Z,19.70
2022-12-07T05:26:57.530Z,19.70
2022-12-07T05:29:26.685Z,19.70
2022-12-07T05:31:54.546Z,19.60
2022-12-07T05:34:22.837Z,19.60
2022-12-07T05:36:51.335Z,19.60
2022-12-07T05:39:19.160Z,19.60
2022-12-07T05:42:04.459Z,19.70
2022-12-07T05:44:33.673Z,19.70
2022-12-07T05:47:01.497Z,19.80
2022-12-07T05:49:29.340Z,19.70
2022-12-07T05:51:57.158Z,19.80
2022-12-07T05:54:25.059Z,19.80
2022-12-07T05:56:53.068Z,19.80
2022-12-07T05:59:25.993Z,19.90
2022-12-07T06:01:57.555Z,19.90
2022-12-07T06:04:26.704Z,19.90
2022-12-07T06:06:54.679Z,20.00
2022-12-07T06:09:24.174Z,19.90
2022-12-07T06:12:10.003Z,19.90
2022-12-07T06:14:38.181Z,19.90
2022-12-07T06:17:07.871Z,20.00
2022-12-07T06:19:36.125Z,20.00
2022-12-07T06:22:05.483Z,20.00
2022-12-07T06:24:33.773Z,20.00
2022-12-07T06:27:01.879Z,20.00
2022-12-07T06:29:29.698Z,20.00
2022-12-07T06:31:57.612Z,20.00
2022-12-07T06:34:27.500Z,20.00
2022-12-07T06:36:56.088Z,20.00
2022-12-07T06:39:26.033Z,20.00
2022-12-07T06:41:54.787Z,20.00
2022-12-07T06:44:23.715Z,19.90
2022-12-07T06:46:51.861Z,20.00
2022-12-07T06:49:19.827Z,19.90
2022-12-07T06:51:49.049Z,19.90
2022-12-07T06:54:18.102Z,19.90
2022-12-07T06:56:45.892Z,19.90
2022-12-07T06:59:13.687Z,19.90
2022-12-07T07:01:41.560Z,19.90
2022-12-07T07:04:09.477Z,19.90
2022-12-07T07:06:37.274Z,19.90
2022-12-07T07:09:06.511Z,19.90
2022-12-07T07:11:34.450Z,19.90
2022-12-07T07:14:03.365Z,19.90
2022-12-07T07:16:32.157Z,19.90
2022-12-07T07:19:00.278Z,19.90
2022-12-07T07:21:28.133Z,20.00
2022-12-07T07:23:55.950Z,19.90
2022-12-07T07:26:25.168Z,20.00
2022-12-07T07:28:53.051Z,20.00
2022-12-07T07:31:20.955Z,20.00
2022-12-07T07:33:49.564Z,20.00
2022-12-07T07:36:17.425Z,19.90
2022-12-07T07:38:45.221Z,19.90
2022-12-07T07:41:13.036Z,19.90
2022-12-07T07:43:42.247Z,19.90
2022-12-07T07:46:10.172Z,19.90
2022-12-07T07:48:38.034Z,19.90
2022-12-07T07:51:08.183Z,20.00
2022-12-07T07:53:36.097Z,20.00
2022-12-07T07:56:04.270Z,20.00
2022-12-07T07:58:32.132Z,20.00
2022-12-07T08:01:06.522Z,20.00
2022-12-07T08:03:34.529Z,20.00
2022-12-07T08:06:03.663Z,19.90
2022-12-07T08:08:31.532Z,19.80
2022-12-07T08:11:01.564Z,19.50
2022-12-07T08:13:31.463Z,19.40
2022-12-07T08:16:05.014Z,19.20
2022-12-07T08:18:32.897Z,19.10
2022-12-07T08:21:02.434Z,19.00
2022-12-07T08:23:37.562Z,19.00
2022-12-07T08:26:09.518Z,18.90
2022-12-07T08:28:37.548Z,19.00
2022-12-07T08:31:09.396Z,19.10
2022-12-07T08:33:37.478Z,19.20
2022-12-07T08:36:07.026Z,19.30
2022-12-07T08:38:36.607Z,19.40
2022-12-07T08:41:04.633Z,19.50
2022-12-07T08:43:32.530Z,19.60
2022-12-07T08:46:11.984Z,19.60
2022-12-07T08:48:46.363Z,19.70
2022-12-07T08:51:14.395Z,19.80
2022-12-07T08:53:43.046Z,19.80
2022-12-07T08:56:11.581Z,19.90
2022-12-07T08:58:40.877Z,20.00
2022-12-07T09:01:10.501Z,20.00
2022-12-07T09:03:38.515Z,20.00
2022-12-07T09:06:06.985Z,20.10
2022-12-07T09:08:39.267Z,20.10
2022-12-07T09:11:07.111Z,20.20
2022-12-07T09:13:34.918Z,20.30
2022-12-07T09:16:02.854Z,20.30
2022-12-07T09:18:32.349Z,20.30
2022-12-07T09:21:00.192Z,20.30
2022-12-07T09:23:28.018Z,20.40
2022-12-07T09:25:55.837Z,20.40
2022-12-07T09:28:23.650Z,20.40
2022-12-07T09:33:42.543Z,20.40
2022-12-07T09:36:11.093Z,20.30
2022-12-07T09:38:38.893Z,20.30
2022-12-07T09:41:08.455Z,20.40
2022-12-07T09:43:38.426Z,20.40
2022-12-07T09:46:06.587Z,20.40
2022-12-07T09:48:37.475Z,20.50
2022-12-07T09:51:22.719Z,20.50
2022-12-07T09:53:53.535Z,20.50
2022-12-07T09:56:23.058Z,20.40
2022-12-07T09:58:53.052Z,20.40
2022-12-07T10:01:23.272Z,20.40
2022-12-07T10:03:53.793Z,20.30
2022-12-07T10:06:23.183Z,20.30
2022-12-07T10:08:50.995Z,20.30
2022-12-07T10:11:18.832Z,20.30
2022-12-07T10:13:49.745Z,20.30
2022-12-07T10:16:38.975Z,20.40
2022-12-07T10:19:22.000Z,20.40
2022-12-07T10:22:07.031Z,20.40
2022-12-07T10:24:34.871Z,20.30
2022-12-07T10:27:02.875Z,20.30
2022-12-07T10:29:33.383Z,20.20
2022-12-07T10:32:04.307Z,20.20
2022-12-07T10:34:40.997Z,20.20
2022-12-07T10:37:17.595Z,20.20
2022-12-07T10:39:48.194Z,20.20
2022-12-07T10:42:21.492Z,20.20
2022-12-07T10:44:50.281Z,20.10
2022-12-07T10:47:36.848Z,20.10
2022-12-07T10:50:24.744Z,20.10
2022-12-07T10:53:14.672Z,20.10
2022-12-07T10:56:07.785Z,20.10
2022-12-07T10:58:54.405Z,20.10
2022-12-07T11:01:28.135Z,20.10
2022-12-07T11:04:13.797Z,20.20
2022-12-07T11:06:51.334Z,20.20
2022-12-07T11:10:07.461Z,20.20
2022-12-07T11:12:44.190Z,20.20
2022-12-07T11:15:19.865Z,20.20
2022-12-07T11:17:57.240Z,20.30
2022-12-07T11:20:38.707Z,20.30
2022-12-07T11:23:21.076Z,20.30
2022-12-07T11:25:57.396Z,20.30
2022-12-07T11:28:37.609Z,20.20
2022-12-07T11:31:14.660Z,20.20
2022-12-07T11:33:48.050Z,20.20
2022-12-07T11:36:35.462Z,20.40
2022-12-07T11:39:06.368Z,20.40
2022-12-07T11:41:38.678Z,20.50
2022-12-07T11:44:09.948Z,20.50
2022-12-07T11:46:51.839Z,20.50
2022-12-07T11:49:25.805Z,20.60
2022-12-07T11:51:59.514Z,20.70
2022-12-07T11:54:31.581Z,20.70
2022-12-07T11:57:09.855Z,20.80
2022-12-07T11:59:42.974Z,21.00
2022-12-07T12:02:16.192Z,21.20
2022-12-07T12:04:54.857Z,21.30
2022-12-07T12:10:23.187Z,21.50
2022-12-07T12:16:10.821Z,21.50
2022-12-07T12:18:52.654Z,21.50
2022-12-07T12:21:24.484Z,21.40
2022-12-07T12:23:58.172Z,21.40
2022-12-07T12:26:29.202Z,21.40
2022-12-07T12:29:00.775Z,21.30
2022-12-07T12:31:37.279Z,21.30
2022-12-07T12:34:26.330Z,21.20
2022-12-07T12:36:57.302Z,21.10
2022-12-07T12:39:26.207Z,21.10
2022-12-07T12:42:10.041Z,21.00
2022-12-07T12:45:04.231Z,20.90
2022-12-07T12:47:54.774Z,20.80
2022-12-07T12:50:25.368Z,20.80
2022-12-07T12:53:25.534Z,20.70
2022-12-07T12:56:34.736Z,20.70
2022-12-07T12:59:25.173Z,20.60
2022-12-07T13:01:57.302Z,20.60
2022-12-07T13:05:01.542Z,20.50
2022-12-07T13:08:06.389Z,20.50
2022-12-07T13:10:43.040Z,20.50
2022-12-07T13:13:34.651Z,20.50
2022-12-07T13:16:50.345Z,20.50
2022-12-07T13:20:03.726Z,20.50
2022-12-07T13:22:45.598Z,20.50
2022-12-07T13:25:21.391Z,20.50
2022-12-07T13:27:53.903Z,20.50
2022-12-07T13:30:23.696Z,20.50
2022-12-07T13:32:55.136Z,20.60
2022-12-07T13:35:39.217Z,20.50
2022-12-07T13:38:25.182Z,20.60
2022-12-07T13:41:13.442Z,20.50
2022-12-07T13:43:51.124Z,20.50
2022-12-07T13:46:22.602Z,20.50
2022-12-07T13:48:52.172Z,20.50
2022-12-07T13:51:23.119Z,20.50
2022-12-07T13:53:54.927Z,20.60
2022-12-07T13:56:28.014Z,20.50
2022-12-07T13:58:56.380Z,20.50
2022-12-07T14:01:24.436Z,20.50
2022-12-07T14:03:52.439Z,20.50
2022-12-07T14:06:29.745Z,20.50
2022-12-07T14:09:24.312Z,20.50
2022-12-07T14:11:55.294Z,20.50
2022-12-07T14:14:24.938Z,20.50
2022-12-07T14:17:14.605Z,20.50
2022-12-07T14:19:50.040Z,20.50
2022-12-07T14:22:33.188Z,20.40
2022-12-07T14:25:16.253Z,20.50
2022-12-07T14:27:51.453Z,20.50
2022-12-07T14:30:20.186Z,20.50
2022-12-07T14:32:51.880Z,20.50
2022-12-07T14:35:20.526Z,20.50
2022-12-07T14:37:50.302Z,20.40
2022-12-07T14:40:21.996Z,20.40
2022-12-07T14:43:02.776Z,20.40
2022-12-07T14:45:30.948Z,20.40
2022-12-07T14:53:42.486Z,20.30
2022-12-07T14:56:11.669Z,20.20
2022-12-07T14:58:39.500Z,20.10
2022-12-07T15:01:07.352Z,20.10
2022-12-07T15:03:38.245Z,20.10
